Estación de Odessa

Ultimos registro cada 15 minutos 69
Estación Fecha / Hora Temperatura Humedad Lluvia Velocidad Dirección Radiación Presion
69 Odessa 09-05-2026 17:00 16,2 64 0 0,4 246 65 1017,9
68 Odessa 09-05-2026 16:45 16,3 64 0 2,2 216 25 1018,2
67 Odessa 09-05-2026 16:30 16,3 64 0 0,4 225 172 1018,3
66 Odessa 09-05-2026 16:15 16,3 64 0 0,9 206 223 1018,4
65 Odessa 09-05-2026 16:00 16,6 63 0 3,6 197 265 1018,4
64 Odessa 09-05-2026 15:45 16,5 62 0 0 197 308 1018,3
63 Odessa 09-05-2026 15:30 16,4 62 0 3,1 201 350 1018,4
62 Odessa 09-05-2026 15:15 16,4 63 0 2,2 202 387 1018,2
61 Odessa 09-05-2026 15:00 16,1 64 0 0,9 212 424 1018,2
60 Odessa 09-05-2026 14:45 15,8 64 0 0,9 145 455 1018,3
59 Odessa 09-05-2026 14:30 15,4 64 0 0,9 235 485 1018,5
58 Odessa 09-05-2026 14:15 14,9 64 0 4 214 512 1018,4
57 Odessa 09-05-2026 14:00 14,4 65 0 0,9 177 534 1018,4
56 Odessa 09-05-2026 13:45 14,2 66 0 2,7 182 554 1018,5
55 Odessa 09-05-2026 13:30 13,8 69 0 0,9 218 571 1018,5
54 Odessa 09-05-2026 13:15 13,3 72 0 2,2 212 580 1019
53 Odessa 09-05-2026 13:00 12,5 76 0 1,8 262 589 1019,1
52 Odessa 09-05-2026 12:45 11,5 80 0 1,3 197 594 1019,4
51 Odessa 09-05-2026 12:30 10,8 79 0 0,4 198 594 1019,4
50 Odessa 09-05-2026 12:15 10,4 80 0 1,8 233 591 1019,7
49 Odessa 09-05-2026 12:00 9,9 82 0 1,8 211 582 1020
48 Odessa 09-05-2026 11:45 9,4 83 0 1,3 248 575 1019,9
47 Odessa 09-05-2026 11:30 8,7 87 0 3,1 259 561 1020
46 Odessa 09-05-2026 11:15 8 90 0 2,2 223 545 1020
45 Odessa 09-05-2026 11:00 6,9 93 0 0,4 164 524 1019,8
44 Odessa 09-05-2026 10:45 6,1 94 0 0 187 534 1020,1
43 Odessa 09-05-2026 10:30 5,5 94 0 0,4 220 171 1020,5
42 Odessa 09-05-2026 10:15 5,6 95 0 0,9 246 146 1020,5
41 Odessa 09-05-2026 10:00 5,4 94 0 0 260 121 1020,5
40 Odessa 09-05-2026 09:45 5,3 95 0 0,9 191 139 1020,5
39 Odessa 09-05-2026 09:30 5,1 94 0 0 198 149 1020,4
38 Odessa 09-05-2026 09:15 5,1 95 0 0 228 91 1020,5
37 Odessa 09-05-2026 09:00 5,1 95 0 0 173 58 1020,5
36 Odessa 09-05-2026 08:45 5,1 95 0 0 209 49 1020,6
35 Odessa 09-05-2026 08:30 4,9 95 0 1,8 251 76 1020,6
34 Odessa 09-05-2026 08:15 5,1 94 0 0,9 187 26 1020,6
33 Odessa 09-05-2026 08:00 5,1 94 0 0,4 157 16 1020,4
32 Odessa 09-05-2026 07:45 4,9 94 0 0 216 7 1020,6
31 Odessa 09-05-2026 07:30 5,2 94 0 0,9 147 0 1020,6
30 Odessa 09-05-2026 07:15 5,6 94 0 2,2 262 0 1020,6
29 Odessa 09-05-2026 07:00 5,6 94 0 1,8 213 0 1020,6
28 Odessa 09-05-2026 06:45 5,8 94 0 1,3 226 0 1020,8
27 Odessa 09-05-2026 06:30 6 94 0 0,4 230 0 1020,7
26 Odessa 09-05-2026 06:15 6,2 93 0 0,9 221 0 1020,8
25 Odessa 09-05-2026 06:00 6,6 94 0 1,3 255 0 1020,9
24 Odessa 09-05-2026 05:45 6,7 93 0 3,1 199 0 1020,9
23 Odessa 09-05-2026 05:30 7 93 0 1,3 212 0 1020,9
22 Odessa 09-05-2026 05:15 7,1 93 0 0,9 216 0 1020,8
21 Odessa 09-05-2026 05:00 7,2 93 0 2,7 228 0 1021
20 Odessa 09-05-2026 04:45 7,4 94 0 2,2 210 0 1020,9
19 Odessa 09-05-2026 04:30 7,7 94 0 1,3 223 0 1020,7
18 Odessa 09-05-2026 04:15 7,8 94 0 0,9 236 0 1020,7
17 Odessa 09-05-2026 04:00 7,9 94 0 1,8 193 0 1020,9
16 Odessa 09-05-2026 03:45 8 94 0 1,8 195 0 1020,9
15 Odessa 09-05-2026 03:30 8 94 0 4 229 0 1021
14 Odessa 09-05-2026 03:15 8,2 95 0 0,9 193 0 1021,2
13 Odessa 09-05-2026 03:00 8,2 95 0 1,8 256 0 1021,4
12 Odessa 09-05-2026 02:45 8,3 95 0 0,9 192 0 1021,3
11 Odessa 09-05-2026 02:30 8,3 95 0 0,9 233 0 1021,3
10 Odessa 09-05-2026 02:15 8,4 95 0 1,8 206 0 1021,3
9 Odessa 09-05-2026 02:00 8,6 95 0 1,3 224 0 1021,7
8 Odessa 09-05-2026 01:45 8,7 95 0 1,3 209 0 1021,8
7 Odessa 09-05-2026 01:30 8,8 94 0 2,7 208 0 1021,5
6 Odessa 09-05-2026 01:15 8,9 94 0 1,8 241 0 1021,8
5 Odessa 09-05-2026 01:00 9,2 94 0 1,8 209 0 1021,8
4 Odessa 09-05-2026 00:45 9,3 95 0 0,9 226 0 1021,7
3 Odessa 09-05-2026 00:30 9,4 94 0 0,9 258 0 1021,7
2 Odessa 09-05-2026 00:15 9,5 94 0 1,3 251 0 1021,6
1 Odessa 09-05-2026 00:00 9,6 94 0 0,9 231 0 1021,6